createdAt,value
2018-12-26T00:00:36.858Z,80.80
2018-12-26T00:03:08.818Z,71.03
2018-12-26T00:05:43.885Z,63.30
2018-12-26T00:08:15.969Z,69.67
2018-12-26T00:10:47.877Z,69.47
2018-12-26T00:13:19.738Z,68.03
2018-12-26T00:15:51.648Z,68.03
2018-12-26T00:18:23.796Z,74.83
2018-12-26T00:20:55.791Z,67.70
2018-12-26T00:23:27.619Z,66.83
2018-12-26T00:26:03.004Z,73.37
2018-12-26T00:28:34.998Z,69.23
2018-12-26T00:31:09.235Z,66.90
2018-12-26T00:33:41.201Z,68.97
2018-12-26T00:36:13.530Z,64.93
2018-12-26T00:38:45.428Z,61.03
2018-12-26T00:41:17.406Z,60.63
2018-12-26T00:43:50.234Z,64.13
2018-12-26T00:46:22.175Z,63.07
2018-12-26T00:48:56.131Z,61.87
2018-12-26T00:51:28.115Z,75.13
2018-12-26T00:54:00.016Z,80.03
2018-12-26T00:56:32.316Z,70.87
2018-12-26T00:59:04.346Z,67.90
2018-12-26T01:01:36.788Z,65.17
2018-12-26T01:04:08.723Z,62.47
2018-12-26T01:06:41.030Z,59.03
2018-12-26T01:09:13.572Z,61.53
2018-12-26T01:11:45.467Z,64.77
2018-12-26T01:14:17.425Z,62.70
2018-12-26T01:16:52.262Z,58.97
2018-12-26T01:19:24.166Z,60.30
2018-12-26T01:21:56.004Z,61.43
2018-12-26T01:24:28.207Z,52.13
2018-12-26T01:27:00.068Z,52.80
2018-12-26T01:29:31.910Z,56.47
2018-12-26T01:32:03.892Z,53.20
2018-12-26T01:34:36.267Z,50.43
2018-12-26T01:37:08.522Z,53.90
2018-12-26T01:39:40.428Z,53.00
2018-12-26T01:42:12.314Z,60.70
2018-12-26T01:44:45.779Z,59.80
2018-12-26T01:47:18.276Z,54.17
2018-12-26T01:49:55.081Z,58.17
2018-12-26T01:52:27.522Z,62.83
2018-12-26T01:55:00.849Z,52.60
2018-12-26T01:57:33.546Z,59.53
2018-12-26T02:00:10.316Z,57.43
2018-12-26T02:02:43.651Z,57.23
2018-12-26T02:05:35.551Z,52.10
2018-12-26T02:08:08.604Z,52.53
2018-12-26T02:10:44.997Z,51.10
2018-12-26T02:13:17.471Z,55.40
2018-12-26T02:15:49.841Z,49.13
2018-12-26T02:18:24.258Z,64.10
2018-12-26T02:20:56.628Z,56.00
2018-12-26T02:23:29.028Z,53.77
2018-12-26T02:26:01.024Z,55.23
2018-12-26T02:28:33.188Z,57.13
2018-12-26T02:31:08.928Z,51.17
2018-12-26T02:33:41.061Z,53.13
2018-12-26T02:36:13.290Z,55.53
2018-12-26T02:38:45.452Z,55.40
2018-12-26T02:41:18.822Z,48.53
2018-12-26T02:43:50.892Z,50.30
2018-12-26T02:46:22.919Z,45.27
2018-12-26T02:48:54.895Z,48.37
2018-12-26T02:51:26.822Z,45.13
2018-12-26T02:54:01.166Z,46.70
2018-12-26T02:56:33.052Z,43.83
2018-12-26T02:59:04.951Z,48.47
2018-12-26T03:01:36.831Z,46.17
2018-12-26T03:04:08.722Z,44.10
2018-12-26T03:06:40.678Z,50.70
2018-12-26T03:09:12.561Z,43.17
2018-12-26T03:11:44.506Z,39.20
2018-12-26T03:14:19.248Z,53.23
2018-12-26T03:16:51.132Z,51.40
2018-12-26T03:19:24.731Z,53.40
2018-12-26T03:21:56.615Z,48.53
2018-12-26T03:24:28.575Z,46.13
2018-12-26T03:27:00.452Z,45.17
2018-12-26T03:29:32.349Z,47.53
2018-12-26T03:32:04.250Z,48.20
2018-12-26T03:34:36.131Z,46.17
2018-12-26T03:37:08.056Z,41.97
2018-12-26T03:39:40.038Z,42.53
2018-12-26T03:42:12.350Z,43.13
2018-12-26T03:44:45.227Z,43.07
2018-12-26T03:47:17.488Z,39.73
2018-12-26T03:49:49.525Z,39.10
2018-12-26T03:52:22.741Z,39.80
2018-12-26T03:54:54.642Z,36.73
2018-12-26T03:57:29.523Z,37.13
2018-12-26T04:00:06.802Z,34.40
2018-12-26T04:02:42.169Z,36.63
2018-12-26T04:05:14.064Z,35.37
2018-12-26T04:07:46.070Z,38.07
2018-12-26T04:10:18.099Z,38.00
2018-12-26T04:12:52.042Z,32.33
2018-12-26T04:15:24.029Z,35.73
2018-12-26T04:17:56.028Z,35.73
2018-12-26T04:20:28.063Z,38.27
2018-12-26T04:23:00.688Z,42.10
2018-12-26T04:25:34.633Z,37.33
2018-12-26T04:28:06.600Z,35.77
2018-12-26T04:30:40.524Z,38.90
2018-12-26T04:33:12.957Z,37.63
2018-12-26T04:35:44.789Z,35.57
2018-12-26T04:38:18.199Z,33.80
2018-12-26T04:40:50.059Z,34.00
2018-12-26T04:43:21.950Z,33.17
2018-12-26T04:45:55.911Z,37.97
2018-12-26T04:48:37.029Z,42.00
2018-12-26T04:51:09.542Z,36.60
2018-12-26T04:53:41.399Z,37.43
2018-12-26T04:56:15.007Z,39.10
2018-12-26T04:58:47.058Z,33.97
2018-12-26T05:01:20.768Z,35.10
2018-12-26T05:03:52.756Z,38.07
2018-12-26T05:06:24.642Z,34.63
2018-12-26T05:08:56.531Z,37.20
2018-12-26T05:11:28.546Z,38.67
2018-12-26T05:14:02.217Z,36.57
2018-12-26T05:16:34.040Z,32.17
2018-12-26T05:19:06.074Z,31.50
2018-12-26T05:21:37.914Z,33.53
2018-12-26T05:24:11.436Z,36.57
2018-12-26T05:26:43.602Z,33.63
2018-12-26T05:29:15.560Z,37.40
2018-12-26T05:31:49.447Z,35.13
2018-12-26T05:34:21.760Z,32.87
2018-12-26T05:36:53.639Z,34.37
2018-12-26T05:39:26.998Z,28.37
2018-12-26T05:41:58.908Z,32.83
2018-12-26T05:44:30.796Z,32.83
2018-12-26T05:47:02.675Z,31.83
2018-12-26T05:49:34.564Z,32.43
2018-12-26T05:52:08.835Z,31.57
2018-12-26T05:54:40.802Z,28.53
2018-12-26T05:57:12.736Z,29.63
2018-12-26T05:59:45.220Z,30.30
2018-12-26T06:02:17.061Z,33.93
2018-12-26T06:04:49.259Z,28.13
2018-12-26T06:07:21.153Z,35.87
2018-12-26T06:09:53.206Z,31.30
2018-12-26T06:12:25.086Z,29.67
2018-12-26T06:14:56.927Z,28.90
2018-12-26T06:17:28.806Z,27.53
2018-12-26T06:20:00.856Z,36.37
2018-12-26T06:22:34.022Z,27.70
2018-12-26T06:25:06.500Z,33.57
2018-12-26T06:27:38.382Z,36.27
2018-12-26T06:30:10.259Z,36.20
2018-12-26T06:32:42.142Z,33.27
2018-12-26T06:35:13.969Z,33.10
2018-12-26T06:37:45.872Z,34.93
2018-12-26T06:40:20.241Z,30.17
2018-12-26T06:42:52.276Z,35.07
2018-12-26T06:45:25.734Z,32.20
2018-12-26T06:47:57.597Z,35.30
2018-12-26T06:50:29.623Z,36.10
2018-12-26T06:53:01.812Z,32.97
2018-12-26T06:55:35.085Z,34.40
2018-12-26T06:58:06.979Z,30.97
2018-12-26T07:00:38.905Z,28.63
2018-12-26T07:03:10.745Z,33.03
2018-12-26T07:05:43.034Z,32.67
2018-12-26T07:08:14.926Z,29.67
2018-12-26T07:10:46.807Z,27.50
2018-12-26T07:13:18.697Z,28.27
2018-12-26T07:15:50.943Z,26.57
2018-12-26T07:18:22.856Z,28.57
2018-12-26T07:20:54.766Z,32.60
2018-12-26T07:23:26.657Z,32.63
2018-12-26T07:25:58.542Z,26.90
2018-12-26T07:28:30.405Z,27.13
2018-12-26T07:31:02.302Z,30.03
2018-12-26T07:33:34.323Z,28.70
2018-12-26T07:36:06.304Z,27.20
2018-12-26T07:38:38.192Z,30.63
2018-12-26T07:41:10.637Z,30.37
2018-12-26T07:43:42.527Z,27.20
2018-12-26T07:46:18.409Z,28.53
2018-12-26T07:48:50.471Z,26.37
2018-12-26T07:51:22.310Z,25.60
2018-12-26T07:53:54.273Z,28.07
2018-12-26T07:56:26.099Z,30.53
2018-12-26T07:58:57.995Z,27.47
2018-12-26T08:01:29.887Z,26.47
2018-12-26T08:04:01.727Z,29.90
2018-12-26T08:06:35.237Z,24.83
2018-12-26T08:09:07.918Z,23.47
2018-12-26T08:11:40.104Z,27.10
2018-12-26T08:14:12.030Z,25.43
2018-12-26T08:16:44.017Z,26.23
2018-12-26T08:19:15.877Z,27.87
2018-12-26T08:21:48.381Z,29.03
2018-12-26T08:24:20.298Z,24.00
2018-12-26T08:26:56.608Z,25.47
2018-12-26T08:29:28.922Z,25.80
2018-12-26T08:32:00.791Z,27.63
2018-12-26T08:34:32.641Z,50.53
2018-12-26T08:37:04.550Z,38.80
2018-12-26T08:39:36.426Z,32.43
2018-12-26T08:42:08.280Z,25.17
2018-12-26T08:44:40.243Z,31.20
2018-12-26T08:47:14.555Z,27.47
2018-12-26T08:49:47.343Z,27.33
2018-12-26T08:52:21.748Z,25.93
2018-12-26T08:54:54.373Z,24.83
2018-12-26T08:57:26.322Z,25.67
2018-12-26T08:59:58.215Z,25.73
2018-12-26T09:02:33.120Z,27.60
2018-12-26T09:05:27.761Z,29.20
2018-12-26T09:08:09.360Z,30.47
2018-12-26T09:10:44.789Z,32.47
2018-12-26T09:13:16.829Z,29.43
2018-12-26T09:15:51.362Z,31.43
2018-12-26T09:18:24.084Z,34.47
2018-12-26T09:20:55.972Z,34.23
2018-12-26T09:23:28.592Z,31.63
2018-12-26T09:26:03.220Z,31.00
2018-12-26T09:28:43.601Z,62.57
2018-12-26T09:31:08.996Z,33.27
2018-12-26T09:33:43.244Z,21.60
2018-12-26T09:36:15.112Z,21.47
2018-12-26T09:38:47.045Z,45.52
2018-12-26T09:41:18.891Z,61.90
2018-12-26T09:43:50.857Z,76.92
2018-12-26T09:46:24.286Z,51.60
2018-12-26T09:48:56.772Z,25.35
2018-12-26T09:51:28.681Z,58.65
2018-12-26T09:54:00.529Z,37.60
2018-12-26T09:56:34.679Z,34.55
2018-12-26T09:59:09.367Z,33.05
2018-12-26T10:01:41.288Z,27.98
2018-12-26T10:04:14.384Z,23.40
2018-12-26T10:06:46.293Z,23.87
2018-12-26T10:09:18.231Z,19.57
2018-12-26T10:11:50.164Z,20.02
2018-12-26T10:14:22.047Z,19.37
2018-12-26T10:16:54.289Z,21.60
2018-12-26T10:19:26.206Z,22.13
2018-12-26T10:21:58.136Z,20.45
2018-12-26T10:24:30.406Z,15.38
2018-12-26T10:27:02.575Z,11.48
2018-12-26T10:29:34.492Z,13.62
2018-12-26T10:32:09.197Z,11.85
2018-12-26T10:34:41.335Z,10.72
2018-12-26T10:37:15.744Z,15.05
2018-12-26T10:39:47.908Z,12.30
2018-12-26T10:42:20.043Z,10.80
2018-12-26T10:44:52.998Z,12.53
2018-12-26T10:47:27.635Z,9.50
2018-12-26T10:49:59.719Z,10.30
2018-12-26T10:52:31.886Z,10.00
2018-12-26T10:55:08.392Z,11.55
2018-12-26T10:57:40.420Z,12.65
2018-12-26T11:00:13.774Z,12.55
2018-12-26T11:02:45.790Z,14.15
2018-12-26T11:05:17.744Z,10.00
2018-12-26T11:07:49.731Z,13.80
2018-12-26T11:10:21.745Z,11.43
2018-12-26T11:12:53.726Z,10.32
2018-12-26T11:15:25.583Z,11.08
2018-12-26T11:17:58.716Z,11.45
2018-12-26T11:20:30.595Z,13.38
2018-12-26T11:23:02.522Z,13.28
2018-12-26T11:25:34.445Z,8.40
2018-12-26T11:28:06.339Z,12.10
2018-12-26T11:30:38.239Z,10.85
2018-12-26T11:33:10.102Z,11.90
2018-12-26T11:35:42.053Z,10.68
2018-12-26T11:38:13.966Z,11.10
2018-12-26T11:40:46.261Z,10.80
2018-12-26T11:43:18.163Z,13.62
2018-12-26T11:45:50.216Z,12.63
2018-12-26T11:48:22.122Z,15.18
2018-12-26T11:50:54.505Z,12.80
2018-12-26T11:53:26.422Z,11.45
2018-12-26T11:55:58.420Z,11.55
2018-12-26T11:58:30.393Z,13.10
2018-12-26T12:01:02.241Z,11.80
2018-12-26T12:03:34.157Z,13.53
2018-12-26T12:06:06.112Z,13.85
2018-12-26T12:08:38.088Z,13.05
2018-12-26T12:11:09.941Z,14.65
2018-12-26T12:13:42.084Z,14.73
2018-12-26T12:16:15.595Z,15.13
2018-12-26T12:18:47.853Z,13.40
2018-12-26T12:21:19.716Z,14.05
2018-12-26T12:23:51.625Z,15.00
2018-12-26T12:26:23.482Z,17.02
2018-12-26T12:28:55.385Z,19.12
2018-12-26T12:31:28.755Z,20.72
2018-12-26T12:34:00.988Z,18.77
2018-12-26T12:36:32.861Z,22.80
2018-12-26T12:39:06.154Z,19.02
2018-12-26T12:41:38.032Z,23.02
2018-12-26T12:44:10.038Z,21.17
2018-12-26T12:46:41.915Z,21.37
2018-12-26T12:51:21.486Z,22.42
2018-12-26T12:53:54.951Z,22.77
2018-12-26T12:56:26.939Z,24.43
2018-12-26T12:58:59.572Z,19.55
2018-12-26T13:01:31.477Z,18.15
2018-12-26T13:04:03.420Z,19.60
2018-12-26T13:06:35.331Z,20.20
2018-12-26T13:09:08.613Z,19.95
2018-12-26T13:11:40.509Z,17.70
2018-12-26T13:14:19.333Z,17.35
2018-12-26T13:16:53.979Z,17.92
2018-12-26T13:19:25.942Z,20.70
2018-12-26T13:21:57.859Z,35.30
2018-12-26T13:24:29.785Z,32.13
2018-12-26T13:27:04.103Z,22.87
2018-12-26T13:29:36.062Z,27.98
2018-12-26T13:32:08.094Z,24.77
2018-12-26T13:34:40.067Z,26.30
2018-12-26T13:37:11.917Z,27.45
2018-12-26T13:39:43.855Z,26.00
2018-12-26T13:42:15.711Z,27.90
2018-12-26T13:44:47.602Z,25.65
2018-12-26T13:47:19.494Z,27.98
2018-12-26T13:49:51.398Z,26.33
2018-12-26T13:52:24.969Z,25.27
2018-12-26T13:54:56.824Z,24.87
2018-12-26T13:57:29.078Z,27.67
2018-12-26T14:00:02.514Z,25.15
2018-12-26T14:02:35.252Z,25.90
2018-12-26T14:05:07.662Z,26.68
2018-12-26T14:07:39.660Z,25.82
2018-12-26T14:10:11.897Z,18.87
2018-12-26T14:12:43.986Z,18.07
2018-12-26T14:15:15.928Z,19.98
2018-12-26T14:17:48.573Z,16.95
2018-12-26T14:20:20.483Z,18.90
2018-12-26T14:22:52.363Z,22.25
2018-12-26T14:25:24.945Z,19.45
2018-12-26T14:27:58.479Z,18.42
2018-12-26T14:30:30.329Z,22.27
2018-12-26T14:33:02.258Z,21.62
2018-12-26T14:35:34.229Z,23.70
2018-12-26T14:38:06.085Z,21.77
2018-12-26T14:40:38.153Z,27.13
2018-12-26T14:43:10.252Z,24.32
2018-12-26T14:45:42.165Z,25.10
2018-12-26T14:48:15.638Z,27.87
2018-12-26T14:50:47.618Z,25.92
2018-12-26T14:53:19.522Z,26.75
2018-12-26T14:55:51.486Z,26.00
2018-12-26T14:58:23.337Z,34.13
2018-12-26T15:00:55.261Z,36.03
2018-12-26T15:03:27.600Z,36.58
2018-12-26T15:06:00.359Z,37.13
2018-12-26T15:08:33.988Z,37.17
2018-12-26T15:11:08.260Z,34.80
2018-12-26T15:13:42.928Z,41.15
2018-12-26T15:16:15.467Z,41.10
2018-12-26T15:18:47.419Z,37.83
2018-12-26T15:21:19.391Z,35.03
2018-12-26T15:23:51.289Z,34.85
2018-12-26T15:26:23.163Z,42.43
2018-12-26T15:28:56.391Z,37.90
2018-12-26T15:31:32.102Z,42.03
2018-12-26T15:34:04.067Z,40.17
2018-12-26T15:36:37.156Z,36.50
2018-12-26T15:39:12.669Z,36.58
2018-12-26T15:41:45.908Z,39.42
2018-12-26T15:44:17.854Z,33.00
2018-12-26T15:46:50.194Z,34.08
2018-12-26T15:49:22.841Z,40.03
2018-12-26T15:51:54.770Z,36.38
2018-12-26T15:54:26.783Z,39.95
2018-12-26T15:56:58.790Z,40.78
2018-12-26T15:59:36.176Z,42.33
2018-12-26T16:02:08.670Z,40.30
2018-12-26T16:04:40.532Z,43.35
2018-12-26T16:07:12.416Z,38.60
2018-12-26T16:09:45.649Z,33.48
2018-12-26T16:12:19.040Z,35.15
2018-12-26T16:14:50.930Z,34.48
2018-12-26T16:17:22.858Z,31.75
2018-12-26T16:19:54.764Z,30.05
2018-12-26T16:22:26.668Z,30.00
2018-12-26T16:24:58.605Z,32.25
2018-12-26T16:27:31.176Z,28.95
2018-12-26T16:30:03.407Z,31.75
2018-12-26T16:32:35.401Z,37.38
2018-12-26T16:35:09.003Z,34.53
2018-12-26T16:37:40.876Z,39.05
2018-12-26T16:40:12.784Z,42.15
2018-12-26T16:42:44.663Z,39.15
2018-12-26T16:45:16.709Z,41.08
2018-12-26T16:47:50.796Z,44.35
2018-12-26T16:50:27.132Z,54.10
2018-12-26T16:52:59.449Z,51.75
2018-12-26T16:55:31.360Z,50.40
2018-12-26T16:58:06.233Z,54.10
2018-12-26T17:00:38.117Z,48.10
2018-12-26T17:03:10.321Z,45.67
2018-12-26T17:05:42.241Z,47.85
2018-12-26T17:08:14.152Z,45.00
2018-12-26T17:10:47.716Z,41.88
2018-12-26T17:13:19.552Z,41.40
2018-12-26T17:15:51.501Z,45.45
2018-12-26T17:18:23.443Z,42.17
2018-12-26T17:20:55.414Z,45.20
2018-12-26T17:23:27.313Z,50.95
2018-12-26T17:25:59.202Z,48.15
2018-12-26T17:28:31.110Z,51.37
2018-12-26T17:31:04.275Z,79.70
2018-12-26T17:33:36.400Z,47.67
2018-12-26T17:36:08.355Z,55.50
2018-12-26T17:38:40.215Z,50.40
2018-12-26T17:41:13.927Z,51.37
2018-12-26T17:43:45.805Z,53.70
2018-12-26T17:46:17.708Z,45.92
2018-12-26T17:48:49.584Z,53.90
2018-12-26T17:51:23.640Z,55.28
2018-12-26T17:54:47.127Z,50.85
2018-12-26T17:57:32.503Z,44.15
2018-12-26T18:00:54.821Z,60.05
2018-12-26T18:03:26.715Z,58.85
2018-12-26T18:05:58.661Z,62.23
2018-12-26T18:08:30.531Z,70.47
2018-12-26T18:11:02.496Z,68.05
2018-12-26T18:13:34.404Z,61.95
2018-12-26T18:16:06.323Z,63.73
2018-12-26T18:18:38.199Z,71.85
2018-12-26T18:21:10.116Z,73.78
2018-12-26T18:23:42.017Z,78.30
2018-12-26T18:26:14.109Z,92.25
2018-12-26T18:28:46.246Z,77.95
2018-12-26T18:31:22.044Z,77.27
2018-12-26T18:33:51.816Z,82.05
2018-12-26T18:36:23.675Z,88.25
2018-12-26T18:38:55.630Z,81.17
2018-12-26T18:41:27.520Z,76.10
2018-12-26T18:43:59.529Z,81.72
2018-12-26T18:46:31.473Z,80.30
2018-12-26T18:49:03.432Z,71.45
2018-12-26T18:51:35.497Z,69.65
2018-12-26T18:54:07.777Z,70.15
2018-12-26T18:56:40.074Z,68.25
2018-12-26T18:59:12.127Z,66.30
2018-12-26T19:01:44.136Z,67.30
2018-12-26T19:04:16.134Z,70.60
2018-12-26T19:06:48.160Z,64.65
2018-12-26T19:09:20.243Z,59.58
2018-12-26T19:11:52.151Z,61.60
2018-12-26T19:14:24.167Z,83.17
2018-12-26T19:16:56.104Z,70.17
2018-12-26T19:19:28.062Z,74.80
2018-12-26T19:21:59.948Z,72.95
2018-12-26T19:24:33.473Z,66.87
2018-12-26T19:27:05.427Z,69.30
2018-12-26T19:29:37.374Z,53.87
2018-12-26T19:32:09.339Z,57.15
2018-12-26T19:34:41.624Z,83.62
2018-12-26T19:37:13.792Z,84.28
2018-12-26T19:39:45.708Z,76.77
2018-12-26T19:42:20.608Z,85.25
2018-12-26T19:44:52.913Z,76.55
2018-12-26T19:47:24.922Z,102.47
2018-12-26T19:50:04.563Z,131.70
2018-12-26T19:52:30.583Z,125.05
2018-12-26T19:55:02.963Z,126.35
2018-12-26T19:57:34.858Z,116.95
2018-12-26T20:00:07.525Z,93.90
2018-12-26T20:02:41.039Z,84.22
2018-12-26T20:05:12.987Z,92.27
2018-12-26T20:07:45.116Z,109.65
2018-12-26T20:10:22.946Z,160.10
2018-12-26T20:12:56.723Z,130.27
2018-12-26T20:15:29.142Z,110.97
2018-12-26T20:18:01.100Z,123.10
2018-12-26T20:20:33.166Z,113.42
2018-12-26T20:23:05.130Z,258.63
2018-12-26T20:25:37.148Z,211.65
2018-12-26T20:28:10.174Z,169.60
2018-12-26T20:30:42.103Z,173.38
2018-12-26T20:33:14.367Z,191.13
2018-12-26T20:35:46.339Z,197.98
2018-12-26T20:38:18.396Z,167.07
2018-12-26T20:40:53.308Z,133.82
2018-12-26T20:43:25.433Z,105.83
2018-12-26T20:45:58.481Z,95.97
2018-12-26T20:48:30.409Z,96.53
2018-12-26T20:51:02.362Z,102.83
2018-12-26T20:53:34.368Z,104.45
2018-12-26T20:56:06.307Z,110.42
2018-12-26T20:58:38.425Z,109.03
2018-12-26T21:01:11.200Z,104.32
2018-12-26T21:03:43.176Z,112.32
2018-12-26T21:06:15.233Z,105.97
2018-12-26T21:08:48.809Z,107.83
2018-12-26T21:11:21.363Z,115.42
2018-12-26T21:13:53.760Z,100.15
2018-12-26T21:16:25.732Z,107.75
2018-12-26T21:18:57.640Z,103.22
2018-12-26T21:21:29.777Z,88.82
2018-12-26T21:24:01.868Z,77.72
2018-12-26T21:26:34.709Z,83.15
2018-12-26T21:29:06.679Z,85.17
2018-12-26T21:31:38.794Z,84.90
2018-12-26T21:34:10.843Z,89.15
2018-12-26T21:36:42.762Z,104.63
2018-12-26T21:39:14.818Z,101.22
2018-12-26T21:41:46.810Z,118.67
2018-12-26T21:44:18.778Z,103.15
2018-12-26T21:46:50.718Z,108.22
2018-12-26T21:49:23.132Z,131.18
2018-12-26T21:51:55.107Z,122.95
2018-12-26T21:54:32.814Z,116.20
2018-12-26T21:57:07.944Z,115.67
2018-12-26T21:59:40.074Z,119.55
2018-12-26T22:02:12.040Z,93.15
2018-12-26T22:04:43.953Z,85.92
2018-12-26T22:07:16.237Z,91.10
2018-12-26T22:09:49.171Z,93.47
2018-12-26T22:12:21.395Z,97.42
2018-12-26T22:14:53.311Z,130.82
2018-12-26T22:17:25.220Z,124.62
2018-12-26T22:19:57.112Z,120.67
2018-12-26T22:22:30.678Z,112.60
2018-12-26T22:25:02.673Z,114.00
2018-12-26T22:27:37.906Z,107.30
2018-12-26T22:30:11.497Z,107.35
2018-12-26T22:32:44.865Z,104.47
2018-12-26T22:35:16.889Z,113.55
2018-12-26T22:37:51.995Z,134.07
2018-12-26T22:40:26.278Z,131.80
2018-12-26T22:42:59.209Z,141.73
2018-12-26T22:45:31.652Z,135.00
2018-12-26T22:48:03.494Z,121.95
2018-12-26T22:50:35.989Z,120.15
2018-12-26T22:53:08.036Z,114.12
2018-12-26T22:55:39.993Z,110.13
2018-12-26T22:58:12.175Z,111.40
2018-12-26T23:00:47.241Z,120.05
2018-12-26T23:03:19.151Z,120.67
2018-12-26T23:05:51.351Z,113.72
2018-12-26T23:08:23.234Z,113.57
2018-12-26T23:10:56.287Z,113.43
2018-12-26T23:13:28.623Z,112.73
2018-12-26T23:16:00.579Z,104.30
2018-12-26T23:18:33.747Z,102.90
2018-12-26T23:21:07.984Z,102.70
2018-12-26T23:23:41.407Z,98.17
2018-12-26T23:26:13.426Z,96.02
2018-12-26T23:28:45.290Z,107.80
2018-12-26T23:31:17.343Z,106.63
2018-12-26T23:33:51.038Z,108.35
2018-12-26T23:36:22.912Z,116.55
2018-12-26T23:38:55.803Z,110.17
2018-12-26T23:41:32.169Z,119.47
2018-12-26T23:44:13.308Z,115.53
2018-12-26T23:46:45.907Z,122.13
2018-12-26T23:49:19.446Z,114.13
2018-12-26T23:51:51.798Z,122.40
2018-12-26T23:54:24.101Z,114.17
2018-12-26T23:56:56.000Z,107.13
2018-12-26T23:59:27.939Z,101.50
